createdAt,value
2022-10-01T00:00:52.557Z,58.08
2022-10-01T00:01:52.618Z,54.33
2022-10-01T00:02:52.643Z,51.69
2022-10-01T00:03:52.539Z,50.48
2022-10-01T00:04:52.518Z,50.60
2022-10-01T00:05:52.513Z,51.41
2022-10-01T00:06:52.527Z,52.33
2022-10-01T00:07:52.552Z,53.47
2022-10-01T00:08:52.475Z,54.90
2022-10-01T00:09:52.460Z,56.33
2022-10-01T00:10:52.456Z,57.81
2022-10-01T00:11:52.474Z,59.10
2022-10-01T00:12:52.469Z,60.08
2022-10-01T00:13:52.463Z,61.35
2022-10-01T00:14:52.397Z,62.12
2022-10-01T00:15:52.393Z,62.96
2022-10-01T00:16:52.421Z,64.45
2022-10-01T00:17:52.405Z,65.76
2022-10-01T00:18:52.375Z,66.39
2022-10-01T00:19:52.354Z,66.44
2022-10-01T00:20:52.348Z,66.92
2022-10-01T00:21:52.323Z,66.81
2022-10-01T00:22:52.326Z,66.97
2022-10-01T00:23:52.330Z,68.11
2022-10-01T00:24:52.297Z,69.29
2022-10-01T00:25:52.273Z,70.27
2022-10-01T00:26:52.261Z,70.86
2022-10-01T00:27:52.295Z,71.59
2022-10-01T00:28:52.233Z,72.96
2022-10-01T00:29:52.255Z,74.97
2022-10-01T00:30:52.218Z,76.47
2022-10-01T00:31:52.274Z,77.82
2022-10-01T00:32:52.191Z,78.91
2022-10-01T00:33:52.190Z,80.19
2022-10-01T00:34:52.213Z,80.65
2022-10-01T00:35:52.159Z,81.04
2022-10-01T00:36:52.144Z,81.51
2022-10-01T00:37:52.136Z,81.75
2022-10-01T00:38:52.114Z,81.04
2022-10-01T00:39:52.136Z,80.50
2022-10-01T00:40:52.095Z,80.19
2022-10-01T00:41:52.088Z,80.50
2022-10-01T00:42:52.077Z,80.97
2022-10-01T00:43:52.090Z,81.83
2022-10-01T00:44:52.051Z,82.72
2022-10-01T00:45:52.103Z,84.38
2022-10-01T00:46:52.035Z,85.50
2022-10-01T00:47:52.021Z,86.46
2022-10-01T00:48:52.007Z,87.45
2022-10-01T00:49:52.007Z,88.28
2022-10-01T00:50:51.996Z,89.50
2022-10-01T00:51:51.969Z,90.95
2022-10-01T00:52:51.967Z,91.65
2022-10-01T00:53:51.946Z,90.56
2022-10-01T00:54:51.939Z,89.03
2022-10-01T00:55:51.966Z,85.84
2022-10-01T00:56:51.928Z,86.11
2022-10-01T00:57:51.897Z,87.36
2022-10-01T00:58:51.888Z,89.21
2022-10-01T00:59:51.902Z,91.15
2022-10-01T01:00:51.926Z,93.38
2022-10-01T01:01:52.020Z,94.19
2022-10-01T01:02:51.849Z,96.62
2022-10-01T01:03:51.838Z,99.36
2022-10-01T01:04:51.812Z,100.19
2022-10-01T01:05:51.807Z,101.89
2022-10-01T01:06:51.826Z,103.78
2022-10-01T01:07:51.797Z,104.29
2022-10-01T01:08:51.779Z,104.10
2022-10-01T01:09:51.818Z,104.49
2022-10-01T01:10:51.744Z,103.46
2022-10-01T01:11:51.743Z,102.76
2022-10-01T01:12:51.764Z,103.21
2022-10-01T01:13:51.751Z,104.43
2022-10-01T01:14:51.711Z,105.41
2022-10-01T01:15:51.817Z,107.02
2022-10-01T01:16:51.680Z,108.68
2022-10-01T01:17:51.698Z,108.54
2022-10-01T01:18:51.705Z,108.26
2022-10-01T01:19:51.654Z,108.82
2022-10-01T01:20:51.627Z,108.82
2022-10-01T01:21:51.616Z,109.46
2022-10-01T01:22:51.648Z,110.25
2022-10-01T01:23:51.612Z,108.89
2022-10-01T01:24:51.590Z,108.05
2022-10-01T01:25:51.585Z,107.29
2022-10-01T01:26:51.574Z,105.47
2022-10-01T01:27:51.589Z,102.83
2022-10-01T01:28:51.560Z,98.38
2022-10-01T01:29:51.544Z,92.86
2022-10-01T01:30:51.552Z,90.37
2022-10-01T01:31:51.520Z,87.27
2022-10-01T01:32:51.514Z,84.63
2022-10-01T01:33:51.501Z,83.21
2022-10-01T01:34:51.490Z,82.64
2022-10-01T01:35:51.486Z,81.99
2022-10-01T01:36:51.453Z,81.67
2022-10-01T01:37:51.432Z,79.59
2022-10-01T01:38:51.448Z,78.18
2022-10-01T01:39:51.422Z,77.25
2022-10-01T01:40:51.426Z,77.18
2022-10-01T01:41:51.390Z,77.75
2022-10-01T01:42:51.390Z,78.18
2022-10-01T01:43:51.375Z,77.89
2022-10-01T01:44:51.378Z,77.32
2022-10-01T01:45:51.421Z,75.38
2022-10-01T01:46:51.361Z,74.05
2022-10-01T01:47:51.333Z,73.08
2022-10-01T01:48:51.324Z,72.20
2022-10-01T01:49:51.314Z,71.77
2022-10-01T01:50:51.289Z,71.47
2022-10-01T01:51:51.303Z,70.39
2022-10-01T01:52:51.263Z,68.78
2022-10-01T01:53:51.256Z,66.65
2022-10-01T01:54:51.255Z,64.06
2022-10-01T01:55:51.235Z,62.03
2022-10-01T01:56:51.232Z,60.73
2022-10-01T01:57:51.223Z,58.41
2022-10-01T01:58:51.232Z,56.14
2022-10-01T01:59:51.191Z,54.15
2022-10-01T02:00:51.184Z,51.82
2022-10-01T02:01:51.283Z,50.72
2022-10-01T02:02:51.223Z,49.50
2022-10-01T02:03:51.161Z,48.95
2022-10-01T02:04:51.133Z,47.87
2022-10-01T02:05:51.133Z,46.75
2022-10-01T02:06:51.118Z,45.78
2022-10-01T02:07:51.100Z,45.14
2022-10-01T02:08:51.084Z,44.62
2022-10-01T02:09:51.070Z,44.15
2022-10-01T02:10:51.072Z,43.42
2022-10-01T02:11:51.062Z,42.89
2022-10-01T02:12:51.033Z,42.63
2022-10-01T02:13:51.026Z,41.82
2022-10-01T02:14:51.024Z,41.45
2022-10-01T02:15:51.066Z,40.65
2022-10-01T02:16:51.024Z,40.15
2022-10-01T02:17:50.991Z,39.88
2022-10-01T02:18:50.978Z,38.96
2022-10-01T02:19:50.956Z,38.08
2022-10-01T02:20:50.940Z,37.00
2022-10-01T02:21:50.989Z,35.87
2022-10-01T02:22:50.920Z,34.71
2022-10-01T02:23:50.916Z,33.63
2022-10-01T02:24:50.899Z,32.69
2022-10-01T02:25:50.908Z,31.75
2022-10-01T02:26:50.905Z,30.89
2022-10-01T02:27:50.941Z,30.09
2022-10-01T02:28:50.869Z,29.38
2022-10-01T02:29:50.836Z,28.76
2022-10-01T02:30:50.882Z,28.26
2022-10-01T02:31:50.801Z,27.73
2022-10-01T02:32:50.824Z,27.32
2022-10-01T02:33:50.793Z,27.07
2022-10-01T02:34:50.820Z,26.48
2022-10-01T02:35:50.773Z,25.83
2022-10-01T02:36:50.811Z,25.34
2022-10-01T02:37:50.780Z,25.06
2022-10-01T02:38:50.739Z,24.72
2022-10-01T02:39:50.731Z,24.29
2022-10-01T02:40:50.719Z,24.03
2022-10-01T02:41:50.723Z,23.81
2022-10-01T02:42:50.721Z,23.59
2022-10-01T02:43:50.683Z,23.32
2022-10-01T02:44:50.658Z,23.02
2022-10-01T02:45:50.711Z,22.72
2022-10-01T02:46:50.668Z,22.38
2022-10-01T02:47:50.661Z,22.00
2022-10-01T02:48:50.616Z,21.62
2022-10-01T02:49:50.610Z,21.36
2022-10-01T02:50:50.629Z,21.12
2022-10-01T02:51:50.595Z,20.87
2022-10-01T02:52:50.595Z,20.62
2022-10-01T02:53:50.581Z,20.34
2022-10-01T02:54:50.547Z,20.07
2022-10-01T02:55:50.526Z,19.83
2022-10-01T02:56:53.245Z,19.57
2022-10-01T02:57:51.536Z,19.42
2022-10-01T02:58:50.506Z,19.35
2022-10-01T02:59:50.510Z,19.28
2022-10-01T03:00:50.500Z,19.26
2022-10-01T03:01:50.550Z,19.16
2022-10-01T03:02:50.525Z,19.09
2022-10-01T03:03:50.461Z,19.03
2022-10-01T03:04:50.440Z,18.98
2022-10-01T03:05:50.435Z,19.09
2022-10-01T03:06:50.427Z,19.14
2022-10-01T03:07:50.419Z,19.21
2022-10-01T03:08:50.392Z,19.19
2022-10-01T03:09:50.386Z,19.12
2022-10-01T03:10:50.359Z,18.93
2022-10-01T03:11:50.353Z,18.83
2022-10-01T03:12:50.367Z,18.68
2022-10-01T03:13:50.336Z,18.65
2022-10-01T03:14:50.321Z,18.63
2022-10-01T03:15:50.390Z,18.68
2022-10-01T03:16:50.318Z,18.71
2022-10-01T03:17:50.296Z,18.73
2022-10-01T03:18:50.290Z,18.80
2022-10-01T03:19:50.251Z,18.81
2022-10-01T03:20:50.246Z,18.80
2022-10-01T03:21:50.253Z,18.73
2022-10-01T03:22:50.226Z,18.75
2022-10-01T03:23:50.260Z,18.78
2022-10-01T03:24:50.210Z,18.71
2022-10-01T03:25:50.199Z,18.68
2022-10-01T03:26:50.201Z,18.66
2022-10-01T03:27:50.165Z,18.66
2022-10-01T03:28:50.156Z,18.75
2022-10-01T03:29:50.184Z,18.83
2022-10-01T03:30:50.131Z,18.97
2022-10-01T03:31:50.157Z,19.03
2022-10-01T03:32:50.124Z,19.25
2022-10-01T03:33:50.090Z,19.28
2022-10-01T03:34:50.098Z,19.46
2022-10-01T03:35:50.087Z,19.60
2022-10-01T03:36:50.070Z,19.68
2022-10-01T03:37:50.049Z,19.81
2022-10-01T03:38:50.037Z,19.68
2022-10-01T03:39:50.066Z,19.55
2022-10-01T03:40:50.027Z,19.46
2022-10-01T03:41:50.001Z,19.35
2022-10-01T03:42:50.001Z,19.14
2022-10-01T03:43:50.010Z,19.09
2022-10-01T03:44:49.969Z,19.05
2022-10-01T03:45:50.037Z,18.97
2022-10-01T03:46:49.950Z,18.83
2022-10-01T03:47:49.930Z,18.85
2022-10-01T03:48:49.929Z,18.90
2022-10-01T03:49:49.936Z,18.95
2022-10-01T03:50:49.938Z,19.02
2022-10-01T03:51:49.890Z,19.10
2022-10-01T03:52:49.900Z,19.17
2022-10-01T03:53:49.872Z,19.32
2022-10-01T03:54:49.855Z,19.42
2022-10-01T03:55:49.850Z,19.60
2022-10-01T03:56:49.851Z,19.77
2022-10-01T03:57:49.819Z,20.03
2022-10-01T03:58:49.801Z,20.25
2022-10-01T03:59:49.792Z,20.50
2022-10-01T04:00:49.795Z,20.79
2022-10-01T04:01:49.917Z,21.04
2022-10-01T04:02:49.849Z,21.21
2022-10-01T04:03:49.755Z,21.36
2022-10-01T04:04:49.741Z,21.55
2022-10-01T04:05:49.736Z,21.69
2022-10-01T04:06:49.748Z,21.89
2022-10-01T04:07:49.709Z,22.15
2022-10-01T04:08:49.685Z,22.15
2022-10-01T04:09:49.687Z,22.28
2022-10-01T04:10:49.670Z,22.48
2022-10-01T04:11:49.666Z,22.52
2022-10-01T04:12:49.673Z,22.45
2022-10-01T04:13:49.628Z,22.31
2022-10-01T04:14:49.624Z,22.26
2022-10-01T04:15:49.740Z,22.33
2022-10-01T04:16:49.602Z,22.19
2022-10-01T04:17:49.610Z,22.05
2022-10-01T04:18:49.589Z,22.03
2022-10-01T04:19:49.555Z,22.05
2022-10-01T04:20:49.559Z,22.15
2022-10-01T04:21:49.551Z,22.33
2022-10-01T04:22:49.537Z,22.22
2022-10-01T04:23:49.552Z,22.24
2022-10-01T04:24:49.524Z,22.31
2022-10-01T04:25:49.484Z,22.40
2022-10-01T04:26:49.492Z,22.40
2022-10-01T04:27:49.523Z,22.57
2022-10-01T04:28:49.510Z,22.69
2022-10-01T04:29:49.451Z,22.72
2022-10-01T04:30:49.439Z,22.62
2022-10-01T04:31:49.463Z,22.67
2022-10-01T04:32:49.406Z,22.50
2022-10-01T04:33:49.408Z,22.55
2022-10-01T04:34:49.425Z,22.45
2022-10-01T04:35:49.376Z,22.52
2022-10-01T04:36:49.374Z,22.48
2022-10-01T04:37:49.343Z,22.57
2022-10-01T04:38:49.364Z,22.72
2022-10-01T04:39:49.352Z,22.82
2022-10-01T04:40:49.326Z,22.89
2022-10-01T04:41:49.325Z,23.02
2022-10-01T04:42:49.300Z,23.17
2022-10-01T04:43:49.289Z,23.22
2022-10-01T04:44:49.303Z,23.14
2022-10-01T04:45:49.275Z,23.14
2022-10-01T04:46:49.286Z,23.17
2022-10-01T04:47:49.240Z,23.25
2022-10-01T04:48:49.225Z,23.43
2022-10-01T04:49:49.242Z,23.53
2022-10-01T04:50:49.211Z,23.66
2022-10-01T04:51:49.224Z,23.88
2022-10-01T04:52:49.190Z,24.15
2022-10-01T04:53:49.173Z,24.50
2022-10-01T04:54:49.195Z,24.69
2022-10-01T04:55:49.177Z,24.78
2022-10-01T04:56:49.148Z,25.12
2022-10-01T04:57:49.124Z,25.42
2022-10-01T04:58:49.190Z,25.72
2022-10-01T04:59:49.142Z,26.02
2022-10-01T05:00:49.162Z,26.51
2022-10-01T05:01:49.111Z,27.13
2022-10-01T05:02:49.062Z,27.53
2022-10-01T05:03:49.064Z,27.50
2022-10-01T05:04:49.056Z,27.39
2022-10-01T05:05:49.114Z,27.52
2022-10-01T05:06:49.046Z,27.20
2022-10-01T05:07:49.034Z,27.21
2022-10-01T05:08:49.002Z,27.18
2022-10-01T05:09:48.989Z,27.20
2022-10-01T05:10:48.981Z,27.13
2022-10-01T05:11:48.982Z,27.07
2022-10-01T05:12:48.956Z,26.90
2022-10-01T05:13:48.939Z,26.65
2022-10-01T05:14:48.927Z,26.25
2022-10-01T05:15:49.042Z,26.08
2022-10-01T05:16:48.918Z,25.67
2022-10-01T05:17:48.912Z,25.50
2022-10-01T05:18:48.915Z,25.22
2022-10-01T05:19:48.868Z,25.00
2022-10-01T05:20:48.867Z,24.62
2022-10-01T05:21:48.839Z,24.32
2022-10-01T05:22:48.851Z,24.18
2022-10-01T05:23:48.821Z,23.92
2022-10-01T05:24:48.811Z,23.84
2022-10-01T05:25:48.798Z,23.64
2022-10-01T05:26:48.790Z,23.65
2022-10-01T05:27:48.845Z,23.25
2022-10-01T05:28:48.795Z,22.89
2022-10-01T05:29:48.764Z,22.48
2022-10-01T05:30:48.749Z,22.28
2022-10-01T05:31:48.779Z,22.33
2022-10-01T05:32:48.800Z,22.19
2022-10-01T05:33:48.731Z,22.00
2022-10-01T05:34:53.324Z,21.73
2022-10-01T05:35:49.685Z,21.71
2022-10-01T05:36:48.716Z,21.58
2022-10-01T05:37:48.657Z,21.42
2022-10-01T05:38:48.664Z,21.38
2022-10-01T05:39:48.683Z,21.29
2022-10-01T05:40:48.639Z,21.33
2022-10-01T05:41:48.617Z,21.40
2022-10-01T05:42:48.603Z,21.29
2022-10-01T05:43:48.598Z,21.29
2022-10-01T05:44:48.596Z,21.21
2022-10-01T05:45:48.642Z,21.27
2022-10-01T05:46:48.608Z,21.25
2022-10-01T05:47:48.586Z,21.29
2022-10-01T05:48:48.547Z,21.27
2022-10-01T05:49:48.524Z,21.21
2022-10-01T05:50:48.530Z,21.16
2022-10-01T05:51:48.507Z,20.97
2022-10-01T05:52:48.487Z,20.95
2022-10-01T05:53:50.435Z,20.83
2022-10-01T05:54:48.469Z,20.89
2022-10-01T05:55:48.460Z,21.01
2022-10-01T05:56:48.479Z,21.21
2022-10-01T05:57:48.446Z,21.42
2022-10-01T05:58:48.427Z,21.60
2022-10-01T05:59:48.421Z,21.73
2022-10-01T06:00:48.415Z,21.94
2022-10-01T06:01:48.410Z,22.05
2022-10-01T06:02:48.540Z,22.38
2022-10-01T06:03:48.363Z,22.62
2022-10-01T06:04:48.363Z,22.94
2022-10-01T06:05:48.351Z,23.25
2022-10-01T06:06:48.343Z,23.45
2022-10-01T06:07:48.324Z,23.53
2022-10-01T06:08:48.322Z,23.74
2022-10-01T06:09:48.330Z,23.91
2022-10-01T06:10:48.301Z,23.99
2022-10-01T06:11:48.271Z,24.18
2022-10-01T06:12:48.259Z,24.31
2022-10-01T06:13:48.261Z,24.39
2022-10-01T06:14:48.230Z,24.49
2022-10-01T06:15:48.223Z,24.66
2022-10-01T06:16:48.300Z,24.65
2022-10-01T06:17:48.206Z,24.73
2022-10-01T06:18:48.185Z,24.66
2022-10-01T06:19:48.189Z,24.79
2022-10-01T06:20:48.190Z,24.92
2022-10-01T06:21:48.165Z,25.03
2022-10-01T06:22:48.157Z,25.16
2022-10-01T06:23:48.134Z,25.73
2022-10-01T06:24:48.154Z,26.99
2022-10-01T06:25:48.120Z,28.37
2022-10-01T06:26:48.133Z,29.36
2022-10-01T06:27:48.183Z,30.18
2022-10-01T06:28:48.072Z,31.44
2022-10-01T06:29:48.066Z,32.51
2022-10-01T06:30:48.134Z,33.58
2022-10-01T06:31:48.122Z,34.10
2022-10-01T06:32:48.046Z,34.66
2022-10-01T06:33:48.034Z,34.71
2022-10-01T06:34:47.994Z,35.42
2022-10-01T06:35:48.014Z,36.11
2022-10-01T06:36:48.014Z,36.81
2022-10-01T06:37:47.967Z,37.73
2022-10-01T06:38:47.975Z,38.11
2022-10-01T06:39:47.944Z,38.28
2022-10-01T06:40:47.933Z,38.85
2022-10-01T06:41:47.961Z,40.11
2022-10-01T06:42:47.950Z,42.54
2022-10-01T06:43:47.899Z,44.62
2022-10-01T06:44:48.001Z,47.06
2022-10-01T06:45:47.913Z,49.27
2022-10-01T06:46:47.877Z,51.25
2022-10-01T06:47:47.862Z,52.89
2022-10-01T06:48:47.865Z,54.61
2022-10-01T06:49:47.983Z,56.98
2022-10-01T06:50:47.823Z,60.47
2022-10-01T06:51:47.805Z,63.43
2022-10-01T06:52:47.808Z,65.30
2022-10-01T06:53:47.801Z,67.34
2022-10-01T06:54:47.787Z,68.33
2022-10-01T06:55:47.767Z,68.67
2022-10-01T06:56:47.767Z,69.12
2022-10-01T06:57:47.748Z,71.10
2022-10-01T06:58:47.765Z,74.24
2022-10-01T06:59:47.737Z,76.75
2022-10-01T07:00:47.741Z,78.54
2022-10-01T07:01:47.716Z,80.89
2022-10-01T07:02:47.743Z,84.13
2022-10-01T07:03:47.671Z,86.82
2022-10-01T07:04:47.674Z,91.25
2022-10-01T07:05:47.676Z,92.96
2022-10-01T07:06:47.662Z,93.82
2022-10-01T07:07:47.628Z,96.46
2022-10-01T07:08:47.630Z,99.19
2022-10-01T07:09:47.601Z,100.92
2022-10-01T07:10:47.627Z,102.95
2022-10-01T07:11:47.588Z,103.59
2022-10-01T07:12:47.572Z,105.47
2022-10-01T07:13:50.031Z,109.81
2022-10-01T07:14:48.554Z,112.83
2022-10-01T07:15:47.555Z,115.07
2022-10-01T07:16:47.613Z,116.35
2022-10-01T07:17:47.510Z,117.57
2022-10-01T07:18:47.512Z,120.35
2022-10-01T07:19:47.490Z,122.63
2022-10-01T07:20:47.488Z,123.17
2022-10-01T07:21:47.511Z,124.35
2022-10-01T07:22:47.449Z,124.26
2022-10-01T07:23:47.445Z,125.56
2022-10-01T07:24:47.434Z,125.65
2022-10-01T07:25:47.419Z,126.79
2022-10-01T07:26:47.451Z,128.83
2022-10-01T07:27:47.421Z,128.83
2022-10-01T07:28:47.392Z,130.03
2022-10-01T07:29:47.373Z,130.23
2022-10-01T07:30:47.364Z,131.86
2022-10-01T07:31:47.391Z,131.55
2022-10-01T07:32:47.361Z,132.59
2022-10-01T07:33:47.370Z,133.64
2022-10-01T07:34:47.320Z,134.82
2022-10-01T07:35:47.321Z,134.82
2022-10-01T07:36:47.300Z,133.75
2022-10-01T07:37:47.291Z,135.04
2022-10-01T07:38:47.290Z,133.33
2022-10-01T07:39:47.264Z,133.86
2022-10-01T07:40:47.262Z,133.01
2022-10-01T07:41:47.237Z,132.28
2022-10-01T07:42:47.221Z,129.43
2022-10-01T07:43:47.263Z,128.83
2022-10-01T07:44:47.230Z,130.43
2022-10-01T07:45:47.297Z,129.63
2022-10-01T07:46:47.204Z,131.86
2022-10-01T07:47:47.209Z,133.75
2022-10-01T07:48:47.174Z,133.96
2022-10-01T07:49:47.156Z,135.80
2022-10-01T07:50:47.140Z,137.24
2022-10-01T07:51:47.147Z,139.52
2022-10-01T07:52:47.131Z,141.76
2022-10-01T07:53:47.182Z,143.21
2022-10-01T07:54:47.095Z,144.56
2022-10-01T07:55:47.132Z,146.20
2022-10-01T07:56:47.104Z,147.22
2022-10-01T07:57:47.110Z,147.61
2022-10-01T07:58:47.062Z,150.24
2022-10-01T07:59:47.120Z,151.46
2022-10-01T08:00:47.113Z,151.87
2022-10-01T08:01:47.119Z,150.78
2022-10-01T08:02:47.012Z,153.40
2022-10-01T08:03:46.984Z,152.98
2022-10-01T08:04:46.987Z,153.54
2022-10-01T08:05:46.974Z,154.95
2022-10-01T08:06:46.974Z,154.67
2022-10-01T08:07:46.944Z,156.25
2022-10-01T08:08:46.934Z,157.13
2022-10-01T08:09:46.956Z,156.98
2022-10-01T08:10:46.931Z,157.42
2022-10-01T08:11:46.915Z,159.36
2022-10-01T08:12:46.884Z,158.01
2022-10-01T08:13:46.904Z,155.67
2022-10-01T08:14:46.867Z,151.19
2022-10-01T08:15:46.866Z,147.09
2022-10-01T08:16:46.916Z,145.82
2022-10-01T08:17:46.834Z,144.31
2022-10-01T08:18:46.802Z,143.09
2022-10-01T08:19:46.815Z,142.96
2022-10-01T08:20:46.788Z,141.52
2022-10-01T08:21:46.806Z,137.47
2022-10-01T08:22:46.893Z,133.12
2022-10-01T08:23:46.812Z,128.73
2022-10-01T08:24:46.748Z,123.89
2022-10-01T08:25:46.755Z,120.09
2022-10-01T08:26:46.727Z,116.67
2022-10-01T08:27:46.768Z,111.71
2022-10-01T08:28:46.733Z,109.53
2022-10-01T08:29:46.704Z,105.08
2022-10-01T08:30:46.683Z,101.96
2022-10-01T08:31:46.719Z,99.60
2022-10-01T08:32:46.677Z,96.90
2022-10-01T08:33:46.657Z,97.24
2022-10-01T08:34:46.639Z,96.96
2022-10-01T08:35:46.647Z,96.02
2022-10-01T08:36:46.610Z,94.99
2022-10-01T08:37:46.606Z,94.96
2022-10-01T08:38:46.579Z,91.95
2022-10-01T08:39:46.592Z,88.93
2022-10-01T08:40:46.601Z,88.65
2022-10-01T08:41:46.550Z,90.27
2022-10-01T08:42:46.547Z,93.27
2022-10-01T08:43:46.531Z,95.39
2022-10-01T08:44:46.528Z,94.88
2022-10-01T08:45:46.644Z,97.01
2022-10-01T08:46:46.519Z,99.13
2022-10-01T08:47:46.478Z,99.42
2022-10-01T08:48:46.464Z,102.51
2022-10-01T08:49:46.477Z,102.39
2022-10-01T08:50:46.443Z,101.59
2022-10-01T08:51:46.449Z,100.92
2022-10-01T08:52:46.420Z,103.53
2022-10-01T08:53:46.419Z,103.53
2022-10-01T08:54:46.497Z,105.28
2022-10-01T08:55:46.392Z,105.74
2022-10-01T08:56:46.427Z,103.53
2022-10-01T08:57:46.393Z,100.92
2022-10-01T08:58:46.350Z,101.77
2022-10-01T08:59:46.362Z,102.33
2022-10-01T09:00:46.416Z,103.91
2022-10-01T09:01:46.372Z,102.89
2022-10-01T09:02:46.332Z,99.25
2022-10-01T09:03:46.303Z,96.18
2022-10-01T09:04:46.329Z,93.98
2022-10-01T09:05:46.280Z,97.46
2022-10-01T09:06:46.272Z,98.72
2022-10-01T09:07:46.282Z,99.90
2022-10-01T09:08:46.256Z,102.95
2022-10-01T09:09:46.230Z,108.19
2022-10-01T09:10:46.228Z,110.97
2022-10-01T09:11:46.203Z,113.37
2022-10-01T09:12:46.260Z,112.68
2022-10-01T09:13:50.089Z,112.68
2022-10-01T09:14:46.201Z,112.91
2022-10-01T09:15:46.180Z,114.84
2022-10-01T09:16:46.172Z,117.98
2022-10-01T09:17:46.135Z,117.49
2022-10-01T09:18:46.133Z,115.39
2022-10-01T09:19:47.857Z,112.31
2022-10-01T09:20:46.109Z,115.39
2022-10-01T09:21:46.083Z,116.67
2022-10-01T09:22:46.076Z,117.90
2022-10-01T09:23:46.095Z,118.65
2022-10-01T09:24:46.063Z,118.90
2022-10-01T09:25:46.059Z,117.65
2022-10-01T09:26:46.026Z,117.08
2022-10-01T09:27:46.063Z,117.32
2022-10-01T09:28:46.047Z,120.61
2022-10-01T09:29:46.031Z,121.30
2022-10-01T09:30:46.004Z,122.10
2022-10-01T09:31:46.016Z,122.45
2022-10-01T09:32:45.995Z,123.08
2022-10-01T09:33:45.990Z,122.54
2022-10-01T09:34:45.935Z,120.52
2022-10-01T09:35:45.942Z,116.11
2022-10-01T09:36:45.954Z,112.46
2022-10-01T09:37:45.895Z,109.10
2022-10-01T09:38:45.898Z,106.27
2022-10-01T09:39:45.896Z,103.27
2022-10-01T09:40:45.872Z,100.49
2022-10-01T09:41:45.871Z,100.01
2022-10-01T09:42:45.835Z,98.84
2022-10-01T09:43:45.837Z,97.75
2022-10-01T09:44:45.850Z,96.79
2022-10-01T09:45:45.856Z,96.18
2022-10-01T09:46:45.805Z,95.25
2022-10-01T09:47:45.795Z,94.53
2022-10-01T09:48:45.785Z,90.76
2022-10-01T09:49:45.788Z,88.28
2022-10-01T09:50:45.750Z,85.50
2022-10-01T09:51:45.937Z,82.31
2022-10-01T09:52:45.734Z,79.44
2022-10-01T09:53:45.718Z,76.82
2022-10-01T09:54:45.724Z,73.92
2022-10-01T09:55:45.717Z,72.39
2022-10-01T09:56:45.687Z,70.33
2022-10-01T09:57:45.682Z,67.89
2022-10-01T09:58:45.675Z,65.87
2022-10-01T09:59:45.651Z,63.43
2022-10-01T10:00:45.654Z,60.86
2022-10-01T10:01:45.708Z,59.52
2022-10-01T10:02:49.299Z,58.08
2022-10-01T10:03:45.610Z,57.37
2022-10-01T10:04:45.614Z,55.55
2022-10-01T10:05:45.617Z,53.30
2022-10-01T10:06:45.595Z,50.97
2022-10-01T10:07:45.561Z,48.58
2022-10-01T10:08:45.569Z,47.84
2022-10-01T10:09:45.552Z,47.54
2022-10-01T10:10:45.571Z,48.19
2022-10-01T10:11:45.581Z,48.44
2022-10-01T10:12:45.490Z,48.33
2022-10-01T10:13:45.489Z,47.27
2022-10-01T10:14:45.510Z,45.19
2022-10-01T10:15:45.541Z,43.02
2022-10-01T10:16:45.448Z,41.99
2022-10-01T10:17:45.481Z,41.41
2022-10-01T10:18:45.422Z,41.17
2022-10-01T10:19:45.464Z,40.49
2022-10-01T10:20:45.418Z,39.84
2022-10-01T10:21:45.418Z,39.80
2022-10-01T10:22:45.398Z,39.03
2022-10-01T10:23:45.372Z,38.63
2022-10-01T10:24:45.363Z,38.60
2022-10-01T10:25:45.350Z,38.21
2022-10-01T10:26:45.353Z,38.56
2022-10-01T10:27:45.402Z,38.71
2022-10-01T10:28:45.373Z,39.47
2022-10-01T10:29:45.310Z,40.03
2022-10-01T10:30:45.292Z,39.69
2022-10-01T10:31:45.380Z,41.09
2022-10-01T10:32:45.277Z,43.11
2022-10-01T10:33:45.265Z,44.43
2022-10-01T10:34:45.254Z,43.92
2022-10-01T10:35:45.222Z,42.76
2022-10-01T10:36:45.251Z,41.95
2022-10-01T10:37:45.233Z,44.62
2022-10-01T10:38:45.198Z,48.17
2022-10-01T10:39:45.217Z,50.57
2022-10-01T10:40:45.172Z,48.58
2022-10-01T10:41:45.198Z,45.48
2022-10-01T10:42:45.177Z,43.78
2022-10-01T10:43:45.176Z,45.19
2022-10-01T10:44:45.151Z,46.64
2022-10-01T10:45:45.135Z,47.57
2022-10-01T10:46:46.312Z,49.97
2022-10-01T10:47:45.117Z,52.04
2022-10-01T10:48:45.101Z,54.29
2022-10-01T10:49:45.104Z,56.33
2022-10-01T10:50:45.103Z,57.06
2022-10-01T10:51:45.081Z,58.86
2022-10-01T10:52:45.820Z,59.57
2022-10-01T10:53:45.086Z,59.31
2022-10-01T10:54:45.036Z,59.74
2022-10-01T10:55:45.032Z,63.38
2022-10-01T10:56:44.999Z,66.86
2022-10-01T10:57:45.005Z,74.31
2022-10-01T10:58:44.976Z,82.64
2022-10-01T10:59:44.976Z,90.56
2022-10-01T11:00:44.966Z,98.20
2022-10-01T11:01:45.092Z,106.34
2022-10-01T11:02:45.016Z,114.29
2022-10-01T11:03:44.929Z,121.57
2022-10-01T11:04:44.907Z,127.17
2022-10-01T11:05:44.915Z,131.45
2022-10-01T11:06:44.901Z,133.86
2022-10-01T11:07:44.936Z,140.34
2022-10-01T11:08:44.866Z,145.94
2022-10-01T11:09:44.854Z,149.44
2022-10-01T11:10:44.852Z,153.40
2022-10-01T11:11:44.838Z,157.27
2022-10-01T11:12:44.858Z,162.91
2022-10-01T11:13:44.811Z,165.64
2022-10-01T11:14:44.803Z,170.51
2022-10-01T11:15:44.839Z,175.13
2022-10-01T11:16:44.788Z,177.53
2022-10-01T11:17:44.761Z,175.86
2022-10-01T11:18:44.786Z,176.60
2022-10-01T11:19:44.738Z,179.05
2022-10-01T11:20:44.722Z,182.35
2022-10-01T11:21:44.715Z,185.36
2022-10-01T11:22:44.701Z,186.39
2022-10-01T11:23:44.715Z,186.60
2022-10-01T11:24:44.671Z,186.39
2022-10-01T11:25:44.666Z,187.87
2022-10-01T11:26:44.709Z,190.36
2022-10-01T11:27:44.666Z,193.48
2022-10-01T11:28:44.625Z,192.36
2022-10-01T11:29:44.649Z,194.96
2022-10-01T11:30:44.605Z,196.59
2022-10-01T11:31:44.656Z,197.53
2022-10-01T11:32:44.582Z,198.24
2022-10-01T11:33:44.594Z,201.38
2022-10-01T11:34:44.596Z,200.28
2022-10-01T11:35:44.547Z,198.71
2022-10-01T11:36:44.532Z,198.24
2022-10-01T11:37:44.523Z,199.31
2022-10-01T11:38:44.545Z,197.76
2022-10-01T11:39:44.523Z,201.75
2022-10-01T11:40:44.532Z,202.99
2022-10-01T11:41:44.509Z,206.67
2022-10-01T11:42:44.487Z,207.71
2022-10-01T11:43:44.460Z,205.00
2022-10-01T11:44:44.484Z,204.11
2022-10-01T11:45:44.451Z,205.89
2022-10-01T11:46:44.459Z,206.28
2022-10-01T11:47:44.416Z,204.87
2022-10-01T11:48:44.405Z,202.86
2022-10-01T11:49:44.403Z,199.31
2022-10-01T11:50:44.388Z,195.54
2022-10-01T11:51:44.371Z,200.28
2022-10-01T11:52:44.380Z,204.37
2022-10-01T11:53:44.351Z,208.49
2022-10-01T11:54:44.349Z,208.75
2022-10-01T11:55:44.347Z,207.05
2022-10-01T11:56:44.339Z,205.38
2022-10-01T11:57:44.304Z,207.31
2022-10-01T11:58:44.296Z,204.75
2022-10-01T11:59:44.324Z,203.36
2022-10-01T12:00:44.343Z,199.68
2022-10-01T12:01:44.290Z,206.15
2022-10-01T12:02:44.238Z,205.51
2022-10-01T12:03:44.241Z,204.24
2022-10-01T12:04:44.220Z,207.18
2022-10-01T12:05:44.279Z,207.05
2022-10-01T12:06:44.210Z,211.29
2022-10-01T12:07:44.188Z,210.62
2022-10-01T12:08:44.198Z,207.84
2022-10-01T12:09:44.169Z,204.11
2022-10-01T12:10:44.150Z,205.00
2022-10-01T12:11:44.187Z,203.74
2022-10-01T12:12:44.143Z,198.48
2022-10-01T12:13:44.142Z,195.54
2022-10-01T12:14:44.112Z,192.80
2022-10-01T12:15:44.170Z,194.05
2022-10-01T12:16:44.146Z,200.77
2022-10-01T12:17:44.081Z,203.74
2022-10-01T12:18:44.079Z,207.05
2022-10-01T12:19:44.078Z,211.29
2022-10-01T12:20:44.051Z,216.83
2022-10-01T12:21:44.049Z,214.86
2022-10-01T12:22:44.045Z,216.12
2022-10-01T12:23:44.013Z,218.84
2022-10-01T12:24:44.007Z,215.98
2022-10-01T12:25:43.983Z,223.88
2022-10-01T12:26:43.985Z,229.00
2022-10-01T12:27:44.026Z,229.48
2022-10-01T12:28:47.857Z,231.89
2022-10-01T12:29:44.954Z,232.54
2022-10-01T12:30:43.943Z,230.76
2022-10-01T12:31:43.988Z,229.96
2022-10-01T12:32:43.933Z,228.52
2022-10-01T12:33:43.896Z,229.96
2022-10-01T12:34:43.875Z,231.24
2022-10-01T12:35:43.869Z,237.22
2022-10-01T12:36:43.863Z,237.73
2022-10-01T12:37:43.839Z,236.54
2022-10-01T12:38:43.844Z,235.02
2022-10-01T12:39:43.822Z,236.54
2022-10-01T12:40:43.814Z,242.08
2022-10-01T12:41:43.834Z,245.13
2022-10-01T12:42:43.814Z,250.33
2022-10-01T12:43:43.784Z,255.16
2022-10-01T12:44:43.784Z,254.96